sensor_id;sensor_type;location;lat;lon;timestamp;P1;durP1;ratioP1;P2;durP2;ratioP2
11113;SDS011;5610;52.154;9.198;2023-04-01T00:01:28;2.80;;;1.40;;
11113;SDS011;5610;52.154;9.198;2023-04-01T00:04:14;2.20;;;1.20;;
11113;SDS011;5610;52.154;9.198;2023-04-01T00:07:00;1.20;;;1.10;;
11113;SDS011;5610;52.154;9.198;2023-04-01T00:09:46;1.40;;;1.10;;
11113;SDS011;5610;52.154;9.198;2023-04-01T00:12:31;2.00;;;1.10;;
11113;SDS011;5610;52.154;9.198;2023-04-01T00:15:18;3.60;;;1.57;;
11113;SDS011;5610;52.154;9.198;2023-04-01T00:18:03;2.13;;;0.90;;
11113;SDS011;5610;52.154;9.198;2023-04-01T00:20:51;3.90;;;0.90;;
11113;SDS011;5610;52.154;9.198;2023-04-01T00:23:36;1.80;;;0.90;;
11113;SDS011;5610;52.154;9.198;2023-04-01T00:26:22;5.47;;;1.40;;
11113;SDS011;5610;52.154;9.198;2023-04-01T00:29:08;2.70;;;1.10;;
11113;SDS011;5610;52.154;9.198;2023-04-01T00:31:55;1.53;;;0.80;;
11113;SDS011;5610;52.154;9.198;2023-04-01T00:34:40;1.20;;;1.00;;
11113;SDS011;5610;52.154;9.198;2023-04-01T00:37:26;3.57;;;1.03;;
11113;SDS011;5610;52.154;9.198;2023-04-01T00:40:21;1.73;;;1.10;;
11113;SDS011;5610;52.154;9.198;2023-04-01T00:43:11;2.77;;;1.30;;
11113;SDS011;5610;52.154;9.198;2023-04-01T00:45:58;2.27;;;1.20;;
11113;SDS011;5610;52.154;9.198;2023-04-01T00:48:45;2.30;;;1.00;;
11113;SDS011;5610;52.154;9.198;2023-04-01T00:51:33;1.47;;;1.20;;
11113;SDS011;5610;52.154;9.198;2023-04-01T00:54:19;1.97;;;1.10;;
11113;SDS011;5610;52.154;9.198;2023-04-01T00:57:08;5.87;;;1.50;;
11113;SDS011;5610;52.154;9.198;2023-04-01T00:59:56;3.83;;;1.20;;
11113;SDS011;5610;52.154;9.198;2023-04-01T01:02:43;3.10;;;1.20;;
11113;SDS011;5610;52.154;9.198;2023-04-01T01:05:34;1.93;;;1.13;;
11113;SDS011;5610;52.154;9.198;2023-04-01T01:08:34;2.13;;;1.00;;
11113;SDS011;5610;52.154;9.198;2023-04-01T01:11:31;1.80;;;0.87;;
11113;SDS011;5610;52.154;9.198;2023-04-01T01:14:25;2.00;;;0.80;;
11113;SDS011;5610;52.154;9.198;2023-04-01T01:17:23;2.63;;;1.27;;
11113;SDS011;5610;52.154;9.198;2023-04-01T01:20:42;2.13;;;0.80;;
11113;SDS011;5610;52.154;9.198;2023-04-01T01:24:06;2.27;;;1.10;;
11113;SDS011;5610;52.154;9.198;2023-04-01T01:27:02;1.83;;;1.00;;
11113;SDS011;5610;52.154;9.198;2023-04-01T01:33:08;0.90;;;0.73;;
11113;SDS011;5610;52.154;9.198;2023-04-01T01:36:05;2.20;;;0.90;;
11113;SDS011;5610;52.154;9.198;2023-04-01T01:38:54;2.30;;;1.00;;
11113;SDS011;5610;52.154;9.198;2023-04-01T01:41:41;3.57;;;1.13;;
11113;SDS011;5610;52.154;9.198;2023-04-01T01:44:28;1.23;;;0.90;;
11113;SDS011;5610;52.154;9.198;2023-04-01T01:47:15;1.97;;;0.80;;
11113;SDS011;5610;52.154;9.198;2023-04-01T01:50:04;3.27;;;0.90;;
11113;SDS011;5610;52.154;9.198;2023-04-01T01:53:00;1.10;;;0.60;;
11113;SDS011;5610;52.154;9.198;2023-04-01T01:55:46;1.03;;;0.70;;
11113;SDS011;5610;52.154;9.198;2023-04-01T01:58:33;2.83;;;0.90;;
11113;SDS011;5610;52.154;9.198;2023-04-01T02:01:27;2.77;;;1.10;;
11113;SDS011;5610;52.154;9.198;2023-04-01T02:04:21;1.53;;;0.80;;
11113;SDS011;5610;52.154;9.198;2023-04-01T02:07:08;1.57;;;0.70;;
11113;SDS011;5610;52.154;9.198;2023-04-01T02:09:59;3.27;;;1.07;;
11113;SDS011;5610;52.154;9.198;2023-04-01T02:12:45;1.33;;;0.83;;
11113;SDS011;5610;52.154;9.198;2023-04-01T02:15:32;1.40;;;1.00;;
11113;SDS011;5610;52.154;9.198;2023-04-01T02:18:24;2.00;;;0.80;;
11113;SDS011;5610;52.154;9.198;2023-04-01T02:21:10;2.50;;;0.90;;
11113;SDS011;5610;52.154;9.198;2023-04-01T02:23:57;0.90;;;0.70;;
11113;SDS011;5610;52.154;9.198;2023-04-01T02:26:46;2.20;;;0.90;;
11113;SDS011;5610;52.154;9.198;2023-04-01T02:29:32;1.33;;;1.13;;
11113;SDS011;5610;52.154;9.198;2023-04-01T02:32:18;2.60;;;1.13;;
11113;SDS011;5610;52.154;9.198;2023-04-01T02:35:05;1.90;;;0.70;;
11113;SDS011;5610;52.154;9.198;2023-04-01T02:37:54;1.33;;;0.70;;
11113;SDS011;5610;52.154;9.198;2023-04-01T02:40:41;1.80;;;0.87;;
11113;SDS011;5610;52.154;9.198;2023-04-01T02:43:28;1.60;;;0.50;;
11113;SDS011;5610;52.154;9.198;2023-04-01T02:46:14;3.27;;;0.87;;
11113;SDS011;5610;52.154;9.198;2023-04-01T02:48:59;4.33;;;0.90;;
11113;SDS011;5610;52.154;9.198;2023-04-01T02:51:44;1.50;;;0.80;;
11113;SDS011;5610;52.154;9.198;2023-04-01T02:54:29;1.83;;;0.90;;
11113;SDS011;5610;52.154;9.198;2023-04-01T02:57:15;2.30;;;0.70;;
11113;SDS011;5610;52.154;9.198;2023-04-01T03:00:01;1.27;;;0.70;;
11113;SDS011;5610;52.154;9.198;2023-04-01T03:02:47;1.77;;;0.93;;
11113;SDS011;5610;52.154;9.198;2023-04-01T03:05:32;0.77;;;0.70;;
11113;SDS011;5610;52.154;9.198;2023-04-01T03:08:17;3.73;;;0.87;;
11113;SDS011;5610;52.154;9.198;2023-04-01T03:11:03;1.60;;;0.80;;
11113;SDS011;5610;52.154;9.198;2023-04-01T03:13:52;2.70;;;1.03;;
11113;SDS011;5610;52.154;9.198;2023-04-01T03:16:38;4.40;;;1.23;;
11113;SDS011;5610;52.154;9.198;2023-04-01T03:19:23;1.13;;;0.60;;
11113;SDS011;5610;52.154;9.198;2023-04-01T03:22:09;1.17;;;0.57;;
11113;SDS011;5610;52.154;9.198;2023-04-01T03:24:55;1.07;;;0.63;;
11113;SDS011;5610;52.154;9.198;2023-04-01T03:27:42;0.77;;;0.67;;
11113;SDS011;5610;52.154;9.198;2023-04-01T03:30:28;4.70;;;0.90;;
11113;SDS011;5610;52.154;9.198;2023-04-01T03:33:16;1.33;;;0.60;;
11113;SDS011;5610;52.154;9.198;2023-04-01T03:36:01;4.20;;;0.73;;
11113;SDS011;5610;52.154;9.198;2023-04-01T03:38:49;1.27;;;0.70;;
11113;SDS011;5610;52.154;9.198;2023-04-01T03:41:41;1.70;;;0.60;;
11113;SDS011;5610;52.154;9.198;2023-04-01T03:44:29;1.93;;;0.60;;
11113;SDS011;5610;52.154;9.198;2023-04-01T03:47:15;1.77;;;0.70;;
11113;SDS011;5610;52.154;9.198;2023-04-01T03:50:02;3.07;;;0.80;;
11113;SDS011;5610;52.154;9.198;2023-04-01T03:52:48;2.17;;;0.60;;
11113;SDS011;5610;52.154;9.198;2023-04-01T03:55:35;4.30;;;0.70;;
11113;SDS011;5610;52.154;9.198;2023-04-01T03:58:20;0.70;;;0.63;;
11113;SDS011;5610;52.154;9.198;2023-04-01T04:01:13;1.93;;;0.90;;
11113;SDS011;5610;52.154;9.198;2023-04-01T04:03:59;1.00;;;0.80;;
11113;SDS011;5610;52.154;9.198;2023-04-01T04:06:46;4.23;;;1.00;;
11113;SDS011;5610;52.154;9.198;2023-04-01T04:09:33;1.27;;;0.73;;
11113;SDS011;5610;52.154;9.198;2023-04-01T04:12:18;3.50;;;0.90;;
11113;SDS011;5610;52.154;9.198;2023-04-01T04:15:03;0.93;;;0.80;;
11113;SDS011;5610;52.154;9.198;2023-04-01T04:17:49;1.80;;;0.80;;
11113;SDS011;5610;52.154;9.198;2023-04-01T04:20:35;2.30;;;0.90;;
11113;SDS011;5610;52.154;9.198;2023-04-01T04:23:22;1.53;;;0.80;;
11113;SDS011;5610;52.154;9.198;2023-04-01T04:26:08;1.77;;;1.00;;
11113;SDS011;5610;52.154;9.198;2023-04-01T04:28:56;2.63;;;1.00;;
11113;SDS011;5610;52.154;9.198;2023-04-01T04:31:42;2.93;;;1.77;;
11113;SDS011;5610;52.154;9.198;2023-04-01T04:34:28;2.00;;;0.80;;
11113;SDS011;5610;52.154;9.198;2023-04-01T04:37:13;1.30;;;0.83;;
11113;SDS011;5610;52.154;9.198;2023-04-01T04:39:59;0.80;;;0.70;;
11113;SDS011;5610;52.154;9.198;2023-04-01T04:42:45;3.50;;;1.23;;
11113;SDS011;5610;52.154;9.198;2023-04-01T04:45:33;1.73;;;1.00;;
11113;SDS011;5610;52.154;9.198;2023-04-01T04:48:18;2.07;;;1.00;;
11113;SDS011;5610;52.154;9.198;2023-04-01T04:51:04;1.40;;;0.70;;
11113;SDS011;5610;52.154;9.198;2023-04-01T04:53:49;2.50;;;0.90;;
11113;SDS011;5610;52.154;9.198;2023-04-01T04:56:37;2.93;;;1.07;;
11113;SDS011;5610;52.154;9.198;2023-04-01T04:59:25;4.20;;;1.00;;
11113;SDS011;5610;52.154;9.198;2023-04-01T05:02:19;1.67;;;1.30;;
11113;SDS011;5610;52.154;9.198;2023-04-01T05:05:05;3.73;;;1.00;;
11113;SDS011;5610;52.154;9.198;2023-04-01T05:07:51;3.20;;;0.90;;
11113;SDS011;5610;52.154;9.198;2023-04-01T05:10:37;2.17;;;1.00;;
11113;SDS011;5610;52.154;9.198;2023-04-01T05:13:23;1.23;;;0.70;;
11113;SDS011;5610;52.154;9.198;2023-04-01T05:16:09;1.53;;;1.00;;
11113;SDS011;5610;52.154;9.198;2023-04-01T05:18:55;4.20;;;1.40;;
11113;SDS011;5610;52.154;9.198;2023-04-01T05:21:40;1.10;;;0.73;;
11113;SDS011;5610;52.154;9.198;2023-04-01T05:24:25;1.17;;;0.70;;
11113;SDS011;5610;52.154;9.198;2023-04-01T05:27:11;5.40;;;1.33;;
11113;SDS011;5610;52.154;9.198;2023-04-01T05:29:59;1.63;;;1.07;;
11113;SDS011;5610;52.154;9.198;2023-04-01T05:33:06;1.90;;;1.03;;
11113;SDS011;5610;52.154;9.198;2023-04-01T05:35:52;1.20;;;0.90;;
11113;SDS011;5610;52.154;9.198;2023-04-01T05:38:38;1.43;;;0.70;;
11113;SDS011;5610;52.154;9.198;2023-04-01T05:41:26;1.60;;;0.87;;
11113;SDS011;5610;52.154;9.198;2023-04-01T05:44:11;1.10;;;0.83;;
11113;SDS011;5610;52.154;9.198;2023-04-01T05:46:58;1.30;;;0.80;;
11113;SDS011;5610;52.154;9.198;2023-04-01T05:49:44;2.40;;;0.87;;
11113;SDS011;5610;52.154;9.198;2023-04-01T05:52:29;1.80;;;1.00;;
11113;SDS011;5610;52.154;9.198;2023-04-01T05:55:14;1.40;;;0.87;;
11113;SDS011;5610;52.154;9.198;2023-04-01T05:58:00;0.60;;;0.60;;
11113;SDS011;5610;52.154;9.198;2023-04-01T06:00:46;3.00;;;0.60;;
11113;SDS011;5610;52.154;9.198;2023-04-01T06:03:35;1.30;;;0.70;;
11113;SDS011;5610;52.154;9.198;2023-04-01T06:06:22;1.90;;;0.90;;
11113;SDS011;5610;52.154;9.198;2023-04-01T06:09:14;2.90;;;0.90;;
11113;SDS011;5610;52.154;9.198;2023-04-01T06:12:16;2.50;;;0.90;;
11113;SDS011;5610;52.154;9.198;2023-04-01T06:15:20;3.87;;;0.90;;
11113;SDS011;5610;52.154;9.198;2023-04-01T06:18:22;1.50;;;0.90;;
11113;SDS011;5610;52.154;9.198;2023-04-01T06:21:30;1.80;;;0.93;;
11113;SDS011;5610;52.154;9.198;2023-04-01T06:24:30;2.23;;;1.00;;
11113;SDS011;5610;52.154;9.198;2023-04-01T06:27:30;1.60;;;1.00;;
11113;SDS011;5610;52.154;9.198;2023-04-01T06:30:33;0.77;;;0.63;;
11113;SDS011;5610;52.154;9.198;2023-04-01T06:33:33;0.80;;;0.73;;
11113;SDS011;5610;52.154;9.198;2023-04-01T06:39:37;3.47;;;1.17;;
11113;SDS011;5610;52.154;9.198;2023-04-01T06:42:39;3.10;;;0.80;;
11113;SDS011;5610;52.154;9.198;2023-04-01T06:46:01;2.00;;;0.97;;
11113;SDS011;5610;52.154;9.198;2023-04-01T06:49:21;1.23;;;0.70;;
11113;SDS011;5610;52.154;9.198;2023-04-01T06:52:44;0.90;;;0.70;;
11113;SDS011;5610;52.154;9.198;2023-04-01T06:55:59;1.77;;;0.70;;
11113;SDS011;5610;52.154;9.198;2023-04-01T06:59:01;2.10;;;0.80;;
11113;SDS011;5610;52.154;9.198;2023-04-01T07:01:50;2.00;;;0.80;;
11113;SDS011;5610;52.154;9.198;2023-04-01T07:04:40;0.93;;;0.60;;
11113;SDS011;5610;52.154;9.198;2023-04-01T07:07:31;0.80;;;0.60;;
11113;SDS011;5610;52.154;9.198;2023-04-01T07:10:25;4.53;;;1.50;;
11113;SDS011;5610;52.154;9.198;2023-04-01T07:13:47;1.30;;;0.90;;
11113;SDS011;5610;52.154;9.198;2023-04-01T07:16:37;0.63;;;0.63;;
11113;SDS011;5610;52.154;9.198;2023-04-01T07:19:29;2.40;;;1.03;;
11113;SDS011;5610;52.154;9.198;2023-04-01T07:22:27;1.20;;;0.80;;
11113;SDS011;5610;52.154;9.198;2023-04-01T07:25:35;1.40;;;0.70;;
11113;SDS011;5610;52.154;9.198;2023-04-01T07:28:46;1.93;;;0.80;;
11113;SDS011;5610;52.154;9.198;2023-04-01T07:35:07;1.20;;;0.70;;
11113;SDS011;5610;52.154;9.198;2023-04-01T07:38:03;1.10;;;0.90;;
11113;SDS011;5610;52.154;9.198;2023-04-01T07:40:57;0.70;;;0.70;;
11113;SDS011;5610;52.154;9.198;2023-04-01T07:43:56;4.13;;;0.90;;
11113;SDS011;5610;52.154;9.198;2023-04-01T07:47:05;1.93;;;0.50;;
11113;SDS011;5610;52.154;9.198;2023-04-01T07:50:02;3.70;;;0.70;;
11113;SDS011;5610;52.154;9.198;2023-04-01T07:52:59;0.60;;;0.40;;
11113;SDS011;5610;52.154;9.198;2023-04-01T07:55:58;1.20;;;0.70;;
11113;SDS011;5610;52.154;9.198;2023-04-01T07:58:53;0.80;;;0.70;;
11113;SDS011;5610;52.154;9.198;2023-04-01T08:02:10;2.37;;;0.63;;
11113;SDS011;5610;52.154;9.198;2023-04-01T08:05:09;1.60;;;0.70;;
11113;SDS011;5610;52.154;9.198;2023-04-01T08:08:06;3.07;;;0.60;;
11113;SDS011;5610;52.154;9.198;2023-04-01T08:11:39;0.70;;;0.40;;
11113;SDS011;5610;52.154;9.198;2023-04-01T08:14:53;2.53;;;0.47;;
11113;SDS011;5610;52.154;9.198;2023-04-01T08:18:14;0.50;;;0.50;;
11113;SDS011;5610;52.154;9.198;2023-04-01T08:21:10;2.50;;;0.77;;
11113;SDS011;5610;52.154;9.198;2023-04-01T08:24:04;4.87;;;0.70;;
11113;SDS011;5610;52.154;9.198;2023-04-01T08:26:57;0.70;;;0.60;;
11113;SDS011;5610;52.154;9.198;2023-04-01T08:29:48;4.23;;;0.77;;
11113;SDS011;5610;52.154;9.198;2023-04-01T08:32:41;1.23;;;0.70;;
11113;SDS011;5610;52.154;9.198;2023-04-01T08:35:31;2.20;;;0.70;;
11113;SDS011;5610;52.154;9.198;2023-04-01T08:38:21;2.83;;;0.80;;
11113;SDS011;5610;52.154;9.198;2023-04-01T08:54:56;0.77;;;0.50;;
11113;SDS011;5610;52.154;9.198;2023-04-01T08:58:26;2.20;;;0.60;;
11113;SDS011;5610;52.154;9.198;2023-04-01T09:01:46;1.10;;;0.80;;
11113;SDS011;5610;52.154;9.198;2023-04-01T09:08:32;0.97;;;0.80;;
11113;SDS011;5610;52.154;9.198;2023-04-01T09:11:38;1.47;;;0.90;;
11113;SDS011;5610;52.154;9.198;2023-04-01T09:14:58;0.63;;;0.60;;
11113;SDS011;5610;52.154;9.198;2023-04-01T09:18:02;1.83;;;0.90;;
11113;SDS011;5610;52.154;9.198;2023-04-01T09:21:04;1.07;;;0.77;;
11113;SDS011;5610;52.154;9.198;2023-04-01T09:24:21;1.13;;;0.93;;
11113;SDS011;5610;52.154;9.198;2023-04-01T09:27:20;2.43;;;0.90;;
11113;SDS011;5610;52.154;9.198;2023-04-01T09:30:19;1.70;;;0.60;;
11113;SDS011;5610;52.154;9.198;2023-04-01T09:37:17;2.30;;;0.70;;
11113;SDS011;5610;52.154;9.198;2023-04-01T09:40:09;0.83;;;0.50;;
11113;SDS011;5610;52.154;9.198;2023-04-01T09:43:22;0.60;;;0.50;;
11113;SDS011;5610;52.154;9.198;2023-04-01T09:46:16;0.90;;;0.40;;
11113;SDS011;5610;52.154;9.198;2023-04-01T09:49:24;1.13;;;0.70;;
11113;SDS011;5610;52.154;9.198;2023-04-01T09:52:31;0.60;;;0.40;;
11113;SDS011;5610;52.154;9.198;2023-04-01T09:59:06;0.80;;;0.67;;
11113;SDS011;5610;52.154;9.198;2023-04-01T10:02:44;1.27;;;1.00;;
11113;SDS011;5610;52.154;9.198;2023-04-01T10:05:54;1.43;;;0.60;;
11113;SDS011;5610;52.154;9.198;2023-04-01T10:09:04;1.00;;;0.70;;
11113;SDS011;5610;52.154;9.198;2023-04-01T10:12:27;1.00;;;0.67;;
11113;SDS011;5610;52.154;9.198;2023-04-01T10:15:41;1.10;;;0.83;;
11113;SDS011;5610;52.154;9.198;2023-04-01T10:18:46;1.37;;;0.50;;
11113;SDS011;5610;52.154;9.198;2023-04-01T10:22:00;1.37;;;0.67;;
11113;SDS011;5610;52.154;9.198;2023-04-01T10:25:03;2.87;;;0.90;;
11113;SDS011;5610;52.154;9.198;2023-04-01T10:32:00;1.97;;;1.00;;
11113;SDS011;5610;52.154;9.198;2023-04-01T10:38:47;0.90;;;0.63;;
11113;SDS011;5610;52.154;9.198;2023-04-01T10:49:10;2.60;;;1.10;;
11113;SDS011;5610;52.154;9.198;2023-04-01T11:00:18;3.00;;;1.30;;
11113;SDS011;5610;52.154;9.198;2023-04-01T11:07:22;2.17;;;1.97;;
11113;SDS011;5610;52.154;9.198;2023-04-01T11:10:44;2.77;;;2.50;;
11113;SDS011;5610;52.154;9.198;2023-04-01T11:17:33;2.10;;;1.90;;
11113;SDS011;5610;52.154;9.198;2023-04-01T11:20:49;1.27;;;1.17;;
11113;SDS011;5610;52.154;9.198;2023-04-01T11:23:59;1.40;;;1.30;;
11113;SDS011;5610;52.154;9.198;2023-04-01T11:27:07;1.93;;;1.37;;
11113;SDS011;5610;52.154;9.198;2023-04-01T11:30:17;3.40;;;1.30;;
11113;SDS011;5610;52.154;9.198;2023-04-01T11:33:09;2.00;;;1.30;;
11113;SDS011;5610;52.154;9.198;2023-04-01T11:36:05;3.70;;;2.93;;
11113;SDS011;5610;52.154;9.198;2023-04-01T11:39:11;1.73;;;1.63;;
11113;SDS011;5610;52.154;9.198;2023-04-01T11:42:20;4.40;;;1.70;;
11113;SDS011;5610;52.154;9.198;2023-04-01T11:45:36;2.70;;;1.40;;
11113;SDS011;5610;52.154;9.198;2023-04-01T11:48:41;1.77;;;1.40;;
11113;SDS011;5610;52.154;9.198;2023-04-01T11:51:44;2.40;;;1.70;;
11113;SDS011;5610;52.154;9.198;2023-04-01T11:54:51;1.60;;;1.50;;
11113;SDS011;5610;52.154;9.198;2023-04-01T11:58:04;3.07;;;1.50;;
11113;SDS011;5610;52.154;9.198;2023-04-01T12:01:08;1.80;;;1.70;;
11113;SDS011;5610;52.154;9.198;2023-04-01T12:04:19;1.80;;;1.70;;
11113;SDS011;5610;52.154;9.198;2023-04-01T12:10:54;4.33;;;3.97;;
11113;SDS011;5610;52.154;9.198;2023-04-01T12:13:47;9.70;;;7.40;;
11113;SDS011;5610;52.154;9.198;2023-04-01T12:16:43;3.70;;;2.97;;
11113;SDS011;5610;52.154;9.198;2023-04-01T12:19:42;2.03;;;1.90;;
11113;SDS011;5610;52.154;9.198;2023-04-01T12:22:37;2.40;;;1.70;;
11113;SDS011;5610;52.154;9.198;2023-04-01T12:25:36;0.80;;;0.80;;
11113;SDS011;5610;52.154;9.198;2023-04-01T12:28:39;2.00;;;1.20;;
11113;SDS011;5610;52.154;9.198;2023-04-01T12:31:34;1.17;;;0.83;;
11113;SDS011;5610;52.154;9.198;2023-04-01T12:37:44;0.67;;;0.67;;
11113;SDS011;5610;52.154;9.198;2023-04-01T12:40:39;1.10;;;0.80;;
11113;SDS011;5610;52.154;9.198;2023-04-01T12:47:00;2.87;;;1.13;;
11113;SDS011;5610;52.154;9.198;2023-04-01T12:50:13;3.67;;;1.50;;
11113;SDS011;5610;52.154;9.198;2023-04-01T12:53:10;2.60;;;1.27;;
11113;SDS011;5610;52.154;9.198;2023-04-01T12:56:09;2.63;;;1.10;;
11113;SDS011;5610;52.154;9.198;2023-04-01T12:59:09;0.87;;;0.60;;
11113;SDS011;5610;52.154;9.198;2023-04-01T13:02:11;0.90;;;0.60;;
11113;SDS011;5610;52.154;9.198;2023-04-01T13:05:18;1.07;;;0.97;;
11113;SDS011;5610;52.154;9.198;2023-04-01T13:08:18;2.40;;;1.27;;
11113;SDS011;5610;52.154;9.198;2023-04-01T13:11:17;4.07;;;2.30;;
11113;SDS011;5610;52.154;9.198;2023-04-01T13:14:13;1.50;;;1.10;;
11113;SDS011;5610;52.154;9.198;2023-04-01T13:17:16;0.90;;;0.90;;
11113;SDS011;5610;52.154;9.198;2023-04-01T13:20:11;1.40;;;1.30;;
11113;SDS011;5610;52.154;9.198;2023-04-01T13:23:05;3.00;;;2.80;;
11113;SDS011;5610;52.154;9.198;2023-04-01T13:26:05;3.30;;;3.10;;
11113;SDS011;5610;52.154;9.198;2023-04-01T13:28:58;3.27;;;2.80;;
11113;SDS011;5610;52.154;9.198;2023-04-01T13:31:52;2.50;;;2.40;;
11113;SDS011;5610;52.154;9.198;2023-04-01T13:34:47;2.70;;;2.50;;
11113;SDS011;5610;52.154;9.198;2023-04-01T13:37:57;3.23;;;3.03;;
11113;SDS011;5610;52.154;9.198;2023-04-01T13:40:58;1.50;;;1.40;;
11113;SDS011;5610;52.154;9.198;2023-04-01T13:43:52;1.23;;;1.23;;
11113;SDS011;5610;52.154;9.198;2023-04-01T13:46:48;1.77;;;1.30;;
11113;SDS011;5610;52.154;9.198;2023-04-01T13:50:18;2.20;;;2.10;;
11113;SDS011;5610;52.154;9.198;2023-04-01T13:53:30;1.83;;;1.30;;
11113;SDS011;5610;52.154;9.198;2023-04-01T13:56:33;1.83;;;1.23;;
11113;SDS011;5610;52.154;9.198;2023-04-01T13:59:31;1.70;;;1.60;;
11113;SDS011;5610;52.154;9.198;2023-04-01T14:02:40;1.77;;;1.50;;
11113;SDS011;5610;52.154;9.198;2023-04-01T14:05:47;4.10;;;1.43;;
11113;SDS011;5610;52.154;9.198;2023-04-01T14:08:46;1.50;;;1.40;;
11113;SDS011;5610;52.154;9.198;2023-04-01T14:11:45;0.90;;;0.90;;
11113;SDS011;5610;52.154;9.198;2023-04-01T14:14:42;1.00;;;1.00;;
11113;SDS011;5610;52.154;9.198;2023-04-01T14:17:40;1.23;;;1.13;;
11113;SDS011;5610;52.154;9.198;2023-04-01T14:20:39;0.90;;;0.90;;
11113;SDS011;5610;52.154;9.198;2023-04-01T14:26:55;1.10;;;1.10;;
11113;SDS011;5610;52.154;9.198;2023-04-01T14:29:52;1.20;;;1.10;;
11113;SDS011;5610;52.154;9.198;2023-04-01T14:32:55;0.60;;;0.60;;
11113;SDS011;5610;52.154;9.198;2023-04-01T14:35:46;0.50;;;0.50;;
11113;SDS011;5610;52.154;9.198;2023-04-01T14:38:51;0.60;;;0.60;;
11113;SDS011;5610;52.154;9.198;2023-04-01T14:41:45;2.20;;;1.90;;
11113;SDS011;5610;52.154;9.198;2023-04-01T14:44:40;2.50;;;2.30;;
11113;SDS011;5610;52.154;9.198;2023-04-01T14:47:43;1.00;;;1.00;;
11113;SDS011;5610;52.154;9.198;2023-04-01T14:50:40;0.80;;;0.80;;
11113;SDS011;5610;52.154;9.198;2023-04-01T14:53:29;1.20;;;1.10;;
11113;SDS011;5610;52.154;9.198;2023-04-01T14:56:35;1.13;;;0.97;;
11113;SDS011;5610;52.154;9.198;2023-04-01T14:59:26;1.90;;;0.80;;
11113;SDS011;5610;52.154;9.198;2023-04-01T15:02:18;0.73;;;0.73;;
11113;SDS011;5610;52.154;9.198;2023-04-01T15:05:24;1.40;;;1.00;;
11113;SDS011;5610;52.154;9.198;2023-04-01T15:08:17;1.20;;;1.10;;
11113;SDS011;5610;52.154;9.198;2023-04-01T15:11:11;1.37;;;0.87;;
11113;SDS011;5610;52.154;9.198;2023-04-01T15:14:18;1.00;;;1.00;;
11113;SDS011;5610;52.154;9.198;2023-04-01T15:17:22;0.73;;;0.60;;
11113;SDS011;5610;52.154;9.198;2023-04-01T15:23:34;1.00;;;1.00;;
11113;SDS011;5610;52.154;9.198;2023-04-01T15:26:32;16.97;;;11.53;;
11113;SDS011;5610;52.154;9.198;2023-04-01T15:29:38;6.37;;;5.20;;
11113;SDS011;5610;52.154;9.198;2023-04-01T15:32:39;1.30;;;1.20;;
11113;SDS011;5610;52.154;9.198;2023-04-01T15:35:37;2.10;;;0.93;;
11113;SDS011;5610;52.154;9.198;2023-04-01T15:38:31;0.90;;;0.90;;
11113;SDS011;5610;52.154;9.198;2023-04-01T15:41:22;1.60;;;1.50;;
11113;SDS011;5610;52.154;9.198;2023-04-01T15:44:34;1.70;;;0.90;;
11113;SDS011;5610;52.154;9.198;2023-04-01T15:47:31;1.53;;;0.80;;
11113;SDS011;5610;52.154;9.198;2023-04-01T15:50:38;1.23;;;1.13;;
11113;SDS011;5610;52.154;9.198;2023-04-01T15:53:50;2.03;;;1.93;;
11113;SDS011;5610;52.154;9.198;2023-04-01T15:56:52;2.60;;;1.70;;
11113;SDS011;5610;52.154;9.198;2023-04-01T15:59:51;1.20;;;1.20;;
11113;SDS011;5610;52.154;9.198;2023-04-01T16:02:44;1.70;;;1.43;;
11113;SDS011;5610;52.154;9.198;2023-04-01T16:05:35;2.83;;;2.63;;
11113;SDS011;5610;52.154;9.198;2023-04-01T16:11:48;2.97;;;2.77;;
11113;SDS011;5610;52.154;9.198;2023-04-01T16:14:43;2.77;;;2.57;;
11113;SDS011;5610;52.154;9.198;2023-04-01T16:17:46;4.27;;;3.87;;
11113;SDS011;5610;52.154;9.198;2023-04-01T16:20:49;4.13;;;3.80;;
11113;SDS011;5610;52.154;9.198;2023-04-01T16:23:40;4.00;;;3.70;;
11113;SDS011;5610;52.154;9.198;2023-04-01T16:26:33;4.07;;;3.70;;
11113;SDS011;5610;52.154;9.198;2023-04-01T16:29:28;4.23;;;3.93;;
11113;SDS011;5610;52.154;9.198;2023-04-01T16:32:27;3.50;;;3.30;;
11113;SDS011;5610;52.154;9.198;2023-04-01T16:35:22;3.50;;;3.30;;
11113;SDS011;5610;52.154;9.198;2023-04-01T16:38:15;3.43;;;3.20;;
11113;SDS011;5610;52.154;9.198;2023-04-01T16:41:10;4.17;;;3.87;;
11113;SDS011;5610;52.154;9.198;2023-04-01T16:44:05;4.10;;;3.90;;
11113;SDS011;5610;52.154;9.198;2023-04-01T16:46:58;3.27;;;3.07;;
11113;SDS011;5610;52.154;9.198;2023-04-01T16:49:52;3.03;;;2.83;;
11113;SDS011;5610;52.154;9.198;2023-04-01T16:52:44;2.13;;;1.93;;
11113;SDS011;5610;52.154;9.198;2023-04-01T16:55:45;2.07;;;1.97;;
11113;SDS011;5610;52.154;9.198;2023-04-01T16:58:34;1.63;;;1.53;;
11113;SDS011;5610;52.154;9.198;2023-04-01T17:01:21;1.30;;;1.20;;
11113;SDS011;5610;52.154;9.198;2023-04-01T17:04:14;1.30;;;1.20;;
11113;SDS011;5610;52.154;9.198;2023-04-01T17:07:11;1.63;;;1.53;;
11113;SDS011;5610;52.154;9.198;2023-04-01T17:13:21;1.50;;;1.40;;
11113;SDS011;5610;52.154;9.198;2023-04-01T17:16:23;1.30;;;1.20;;
11113;SDS011;5610;52.154;9.198;2023-04-01T17:19:14;1.00;;;0.87;;
11113;SDS011;5610;52.154;9.198;2023-04-01T17:22:13;0.70;;;0.70;;
11113;SDS011;5610;52.154;9.198;2023-04-01T17:28:46;1.40;;;1.30;;
11113;SDS011;5610;52.154;9.198;2023-04-01T17:31:38;1.50;;;1.40;;
11113;SDS011;5610;52.154;9.198;2023-04-01T17:34:32;2.67;;;2.43;;
11113;SDS011;5610;52.154;9.198;2023-04-01T17:37:28;3.20;;;2.83;;
11113;SDS011;5610;52.154;9.198;2023-04-01T17:40:37;4.53;;;3.40;;
11113;SDS011;5610;52.154;9.198;2023-04-01T17:43:33;6.43;;;5.57;;
11113;SDS011;5610;52.154;9.198;2023-04-01T17:46:30;3.50;;;3.30;;
11113;SDS011;5610;52.154;9.198;2023-04-01T17:49:26;2.80;;;2.60;;
11113;SDS011;5610;52.154;9.198;2023-04-01T17:52:20;2.20;;;2.10;;
11113;SDS011;5610;52.154;9.198;2023-04-01T17:55:22;2.80;;;2.60;;
11113;SDS011;5610;52.154;9.198;2023-04-01T17:58:21;4.10;;;3.80;;
11113;SDS011;5610;52.154;9.198;2023-04-01T18:01:17;1.80;;;1.70;;
11113;SDS011;5610;52.154;9.198;2023-04-01T18:04:17;1.60;;;1.50;;
11113;SDS011;5610;52.154;9.198;2023-04-01T18:10:25;2.87;;;2.47;;
11113;SDS011;5610;52.154;9.198;2023-04-01T18:13:23;3.93;;;3.63;;
11113;SDS011;5610;52.154;9.198;2023-04-01T18:16:30;6.30;;;5.90;;
11113;SDS011;5610;52.154;9.198;2023-04-01T18:19:35;3.50;;;3.20;;
11113;SDS011;5610;52.154;9.198;2023-04-01T18:22:29;2.27;;;2.17;;
11113;SDS011;5610;52.154;9.198;2023-04-01T18:25:25;2.80;;;2.60;;
11113;SDS011;5610;52.154;9.198;2023-04-01T18:28:16;4.00;;;3.70;;
11113;SDS011;5610;52.154;9.198;2023-04-01T18:31:10;5.10;;;4.70;;
11113;SDS011;5610;52.154;9.198;2023-04-01T18:34:02;3.60;;;3.40;;
11113;SDS011;5610;52.154;9.198;2023-04-01T18:36:55;5.33;;;4.97;;
11113;SDS011;5610;52.154;9.198;2023-04-01T18:39:46;4.97;;;4.47;;
11113;SDS011;5610;52.154;9.198;2023-04-01T18:42:38;5.10;;;4.70;;
11113;SDS011;5610;52.154;9.198;2023-04-01T18:45:32;4.20;;;3.90;;
11113;SDS011;5610;52.154;9.198;2023-04-01T18:48:31;4.40;;;4.10;;
11113;SDS011;5610;52.154;9.198;2023-04-01T18:51:24;4.00;;;3.70;;
11113;SDS011;5610;52.154;9.198;2023-04-01T18:54:21;4.13;;;3.40;;
11113;SDS011;5610;52.154;9.198;2023-04-01T18:57:12;5.63;;;5.13;;
11113;SDS011;5610;52.154;9.198;2023-04-01T19:00:02;4.80;;;4.40;;
11113;SDS011;5610;52.154;9.198;2023-04-01T19:02:54;4.10;;;3.80;;
11113;SDS011;5610;52.154;9.198;2023-04-01T19:05:45;3.83;;;3.53;;
11113;SDS011;5610;52.154;9.198;2023-04-01T19:08:34;5.00;;;4.70;;
11113;SDS011;5610;52.154;9.198;2023-04-01T19:11:28;4.07;;;3.83;;
11113;SDS011;5610;52.154;9.198;2023-04-01T19:14:23;3.03;;;2.83;;
11113;SDS011;5610;52.154;9.198;2023-04-01T19:17:25;3.07;;;2.87;;
11113;SDS011;5610;52.154;9.198;2023-04-01T19:20:22;2.50;;;2.30;;
11113;SDS011;5610;52.154;9.198;2023-04-01T19:23:31;2.60;;;2.50;;
11113;SDS011;5610;52.154;9.198;2023-04-01T19:26:39;2.23;;;2.13;;
11113;SDS011;5610;52.154;9.198;2023-04-01T19:29:33;1.77;;;1.67;;
11113;SDS011;5610;52.154;9.198;2023-04-01T19:32:34;1.67;;;1.57;;